Time;durP1;ratioP1;P1;durP2;ratioP2;P2;SDS_P1;SDS_P2;PMS_P1;PMS_P2;Temp;Humidity;BMP_temperature;BMP_pressure;BME280_temperature;BME280_humidity;BME280_pressure;Samples;Min_cycle;Max_cycle;Signal;HPM_P1;HPM_P2
2020/12/07 00:01:45;;;;;;;7.43;5.03;;;;;;;9.84;56.84;95247.44;5045121;28;20053;-54
2020/12/07 00:04:12;;;;;;;7.10;4.70;;;;;;;9.85;56.69;95221.88;5015101;28;20053;-54
2020/12/07 00:06:40;;;;;;;6.15;4.47;;;;;;;9.83;57.14;95226.63;5027869;28;20045;-54
2020/12/07 00:09:08;;;;;;;10.75;5.05;;;;;;;9.84;56.84;95223.72;5011079;28;20064;-55
2020/12/07 00:11:35;;;;;;;7.80;4.65;;;;;;;9.87;56.79;95226.88;5013613;28;20061;-53
2020/12/07 00:14:03;;;;;;;6.25;5.15;;;;;;;9.81;57.20;95234.78;5000033;28;20061;-55
2020/12/07 00:16:30;;;;;;;7.25;5.60;;;;;;;9.81;56.82;95231.38;5009292;28;20049;-54
2020/12/07 00:18:57;;;;;;;6.97;4.78;;;;;;;9.77;56.96;95225.84;5013369;28;20636;-56
2020/12/07 00:21:24;;;;;;;6.45;4.65;;;;;;;9.79;56.97;95236.88;5017793;28;20049;-54
2020/12/07 00:23:52;;;;;;;4.80;4.30;;;;;;;9.78;56.86;95239.81;5006667;28;20064;-55
2020/12/07 00:26:18;;;;;;;5.95;4.40;;;;;;;9.74;56.97;95252.72;5004706;28;20085;-54
2020/12/07 00:28:46;;;;;;;4.63;4.20;;;;;;;9.71;56.98;95242.72;5000315;28;20723;-55
2020/12/07 00:31:13;;;;;;;7.68;5.30;;;;;;;9.75;57.49;95267.47;5015306;28;20061;-55
2020/12/07 00:33:40;;;;;;;6.57;5.50;;;;;;;9.71;57.30;95253.25;5011619;28;20584;-55
2020/12/07 00:36:08;;;;;;;7.72;5.45;;;;;;;9.71;57.64;95274.31;5001631;28;20054;-53
2020/12/07 00:38:35;;;;;;;6.10;5.47;;;;;;;9.71;57.62;95273.53;5028159;28;20057;-55
2020/12/07 00:41:02;;;;;;;6.10;5.50;;;;;;;9.72;57.55;95264.59;5001609;28;20050;-54
2020/12/07 00:43:30;;;;;;;5.78;5.13;;;;;;;9.69;57.55;95252.72;5009742;28;20057;-54
2020/12/07 00:45:58;;;;;;;4.60;3.95;;;;;;;9.67;57.76;95254.81;5000206;28;20056;-53
2020/12/07 00:48:25;;;;;;;5.68;5.07;;;;;;;9.66;57.36;95243.50;5038364;28;20104;-54
2020/12/07 00:50:52;;;;;;;5.93;4.70;;;;;;;9.64;57.60;95239.56;5042863;28;20052;-53
2020/12/07 00:53:20;;;;;;;5.25;4.75;;;;;;;9.63;57.64;95249.31;5038794;28;20057;-53
2020/12/07 00:55:47;;;;;;;7.18;4.70;;;;;;;9.60;58.03;95257.72;4989716;28;20049;-54
2020/12/07 00:58:15;;;;;;;7.50;5.85;;;;;;;9.48;57.81;95241.41;5007485;28;20064;-53
2020/12/07 01:00:42;;;;;;;5.88;4.95;;;;;;;9.58;57.63;95251.16;5012069;28;20049;-54
2020/12/07 01:03:11;;;;;;;5.55;4.40;;;;;;;9.58;57.59;95240.63;4998521;28;20660;-54
2020/12/07 01:05:39;;;;;;;6.32;4.63;;;;;;;9.57;57.41;95241.66;5003937;28;20203;-54
2020/12/07 01:08:06;;;;;;;5.53;4.45;;;;;;;9.61;57.21;95237.47;5022843;28;20050;-54
2020/12/07 01:10:34;;;;;;;8.85;4.57;;;;;;;9.67;57.05;95244.28;5004681;28;20420;-54
2020/12/07 01:13:04;;;;;;;6.00;4.30;;;;;;;9.71;56.88;95226.13;5040879;28;20061;-54
2020/12/07 01:15:32;;;;;;;4.47;3.88;;;;;;;9.74;57.06;95228.22;5003836;28;20053;-53
2020/12/07 01:18:02;;;;;;;5.43;4.78;;;;;;;9.75;56.89;95240.31;5023607;28;20068;-54
2020/12/07 01:20:33;;;;;;;7.32;4.90;;;;;;;9.75;56.61;95230.59;5016491;28;20053;-54
2020/12/07 01:23:01;;;;;;;7.43;4.75;;;;;;;9.75;56.84;95225.31;5008066;28;20053;-55
2020/12/07 01:25:29;;;;;;;4.93;4.35;;;;;;;9.74;56.94;95215.03;5020153;28;20417;-54
2020/12/07 01:27:58;;;;;;;5.45;4.55;;;;;;;9.72;57.32;95201.38;4996550;28;20099;-54
2020/12/07 01:30:25;;;;;;;5.38;4.15;;;;;;;9.72;56.69;95190.84;5036992;28;23860;-55
2020/12/07 01:32:52;;;;;;;6.38;4.80;;;;;;;9.71;57.11;95179.50;5008543;28;20053;-53
2020/12/07 01:35:19;;;;;;;4.75;4.03;;;;;;;9.69;56.93;95168.44;5038059;28;20068;-54
2020/12/07 01:37:48;;;;;;;5.38;4.72;;;;;;;9.68;56.88;95172.13;5038103;28;20060;-54
2020/12/07 01:40:16;;;;;;;5.35;4.68;;;;;;;9.65;57.22;95173.47;5008471;28;20421;-53
2020/12/07 01:42:44;;;;;;;5.10;3.90;;;;;;;9.65;57.00;95188.50;4997461;28;20053;-54
2020/12/07 01:45:11;;;;;;;5.18;3.75;;;;;;;9.64;56.50;95171.09;4998830;28;20065;-54
2020/12/07 01:47:38;;;;;;;4.50;3.83;;;;;;;9.68;56.43;95183.47;5009244;28;20045;-53
2020/12/07 01:50:11;;;;;;;6.82;3.92;;;;;;;9.69;56.57;95195.59;5007850;28;20784;-54
2020/12/07 01:52:40;;;;;;;4.28;3.88;;;;;;;9.66;56.94;95196.09;4997114;28;20082;-54
2020/12/07 01:55:08;;;;;;;6.28;3.63;;;;;;;9.73;56.48;95195.84;5008610;28;20049;-55
2020/12/07 01:57:45;;;;;;;4.25;3.47;;;;;;;9.77;56.12;95201.34;5039540;28;20068;-54
2020/12/07 02:00:13;;;;;;;4.75;3.97;;;;;;;9.79;56.23;95186.06;5036055;28;20045;-55
2020/12/07 02:02:46;;;;;;;4.43;3.80;;;;;;;9.80;56.18;95180.53;5016641;28;20554;-54
2020/12/07 02:05:18;;;;;;;6.22;3.90;;;;;;;9.78;56.23;95208.19;4979795;28;20076;-54
2020/12/07 02:07:49;;;;;;;4.50;3.50;;;;;;;9.82;55.75;95186.31;5018958;28;20060;-54
2020/12/07 02:10:16;;;;;;;4.30;3.65;;;;;;;9.85;55.76;95185.78;5009636;28;20045;-56
2020/12/07 02:12:44;;;;;;;4.43;3.55;;;;;;;9.86;55.59;95178.66;5009829;28;20513;-54
2020/12/07 02:15:11;;;;;;;4.28;3.88;;;;;;;9.88;55.49;95184.44;5040556;28;20061;-55
2020/12/07 02:17:38;;;;;;;4.47;3.55;;;;;;;9.88;55.83;95192.34;5009494;28;20049;-53
2020/12/07 02:20:06;;;;;;;6.38;3.63;;;;;;;9.83;55.60;95195.78;5015815;28;20060;-54
2020/12/07 02:22:33;;;;;;;5.10;3.67;;;;;;;9.87;55.38;95187.38;5038440;28;20057;-54
2020/12/07 02:25:09;;;;;;;6.30;3.42;;;;;;;9.87;55.41;95193.41;5000885;28;20056;-54
2020/12/07 02:27:36;;;;;;;6.40;3.35;;;;;;;9.85;55.76;95193.69;5040947;28;20049;-55
2020/12/07 02:30:04;;;;;;;4.78;3.35;;;;;;;9.83;55.77;95184.50;5001228;28;20050;-52
2020/12/07 02:32:33;;;;;;;5.72;4.50;;;;;;;9.83;55.83;95189.75;5021283;28;20037;-55
2020/12/07 02:35:12;;;;;;;4.47;3.15;;;;;;;9.85;56.12;95206.84;5008701;28;20060;-55
2020/12/07 02:37:48;;;;;;;5.10;3.70;;;;;;;9.83;56.17;95195.03;4997466;28;20060;-54
2020/12/07 02:40:18;;;;;;;4.68;3.50;;;;;;;9.81;55.96;95168.16;5011456;28;20045;-54
2020/12/07 02:42:45;;;;;;;5.65;3.75;;;;;;;9.85;55.99;95180.53;5044944;28;20057;-58
2020/12/07 02:45:18;;;;;;;5.25;3.67;;;;;;;9.86;55.85;95178.66;4996394;28;20061;-55
2020/12/07 02:47:58;;;;;;;5.18;4.28;;;;;;;9.86;55.93;95189.19;4984671;28;20061;-54
2020/12/07 02:50:26;;;;;;;5.43;3.60;;;;;;;9.84;56.02;95202.66;5013566;28;20506;-55
2020/12/07 02:52:55;;;;;;;4.43;3.80;;;;;;;9.82;55.72;95204.75;5043824;28;20505;-55
2020/12/07 02:55:22;;;;;;;5.00;3.85;;;;;;;9.81;56.20;95202.41;5011764;28;20065;-54
2020/12/07 02:57:52;;;;;;;4.20;3.80;;;;;;;9.82;55.96;95204.75;5048344;28;20049;-54
2020/12/07 03:00:25;;;;;;;4.68;4.20;;;;;;;9.84;56.08;95213.19;5002961;28;20053;-54
2020/12/07 03:02:52;;;;;;;5.30;4.03;;;;;;;9.84;55.99;95209.78;5043842;28;20037;-53
2020/12/07 03:05:25;;;;;;;5.22;3.72;;;;;;;9.87;56.50;95213.72;5003565;28;20062;-55
2020/12/07 03:07:55;;;;;;;6.00;4.35;;;;;;;9.80;56.33;95214.75;5030569;28;20049;-55
2020/12/07 03:10:23;;;;;;;5.93;3.83;;;;;;;9.91;56.35;95206.84;5043935;28;21025;-55
2020/12/07 03:12:53;;;;;;;5.43;3.92;;;;;;;9.93;55.91;95208.16;5042730;28;20689;-53
2020/12/07 03:15:24;;;;;;;5.25;4.25;;;;;;;9.96;56.03;95210.25;5043495;28;20050;-55
2020/12/07 03:17:52;;;;;;;5.57;4.40;;;;;;;9.95;56.07;95215.78;5029138;28;20056;-54
2020/12/07 03:20:25;;;;;;;4.80;3.90;;;;;;;9.95;55.98;95210.50;5059369;28;20049;-54
2020/12/07 03:22:56;;;;;;;5.95;3.83;;;;;;;9.93;55.69;95202.88;5009225;28;20049;-54
2020/12/07 03:25:24;;;;;;;5.50;3.83;;;;;;;9.95;55.68;95203.41;5004399;28;20053;-53
2020/12/07 03:27:51;;;;;;;4.95;3.60;;;;;;;9.95;55.72;95198.16;5011536;28;20057;-54
2020/12/07 03:30:19;;;;;;;7.05;4.68;;;;;;;9.96;55.83;95202.34;5022227;28;20053;-54
2020/12/07 03:32:47;;;;;;;6.80;4.50;;;;;;;9.96;56.22;95193.66;4994644;28;20053;-52
2020/12/07 03:35:14;;;;;;;4.28;3.58;;;;;;;9.95;56.01;95194.69;5005891;28;20049;-54
2020/12/07 03:37:42;;;;;;;4.55;4.13;;;;;;;9.95;56.08;95194.69;5003478;28;20057;-54
2020/12/07 03:40:09;;;;;;;5.25;3.97;;;;;;;9.94;55.74;95183.38;5020416;28;20057;-53
2020/12/07 03:42:42;;;;;;;4.95;4.00;;;;;;;9.96;55.63;95173.38;5004086;28;20049;-54
2020/12/07 03:45:11;;;;;;;5.90;3.88;;;;;;;9.98;55.67;95181.00;5030255;28;20076;-57
2020/12/07 03:47:40;;;;;;;6.32;3.85;;;;;;;9.97;55.36;95182.06;4997565;28;20046;-54
2020/12/07 03:50:10;;;;;;;7.15;4.30;;;;;;;9.97;55.58;95180.19;5013091;28;20057;-53
2020/12/07 03:52:42;;;;;;;6.30;4.68;;;;;;;9.95;55.17;95166.53;4999861;28;20316;-52
2020/12/07 03:55:15;;;;;;;5.60;3.95;;;;;;;9.98;55.21;95162.56;5046072;28;20045;-54
2020/12/07 03:57:42;;;;;;;4.70;3.83;;;;;;;9.96;55.58;95172.56;5017538;28;20512;-53
2020/12/07 04:00:10;;;;;;;6.50;4.20;;;;;;;9.99;55.38;95153.59;5012830;28;20052;-54
2020/12/07 04:02:43;;;;;;;5.00;3.90;;;;;;;9.95;55.44;95149.91;5000944;28;20323;-54
2020/12/07 04:05:33;;;;;;;5.38;4.45;;;;;;;9.97;55.46;95163.63;5038720;28;20046;-54
2020/12/07 04:08:01;;;;;;;4.68;4.15;;;;;;;9.97;55.42;95160.97;5040322;28;20049;-54
2020/12/07 04:10:29;;;;;;;5.93;4.53;;;;;;;9.97;55.40;95150.44;4993275;28;20062;-52
2020/12/07 04:12:56;;;;;;;5.32;4.10;;;;;;;9.98;55.74;95144.13;5001683;28;20482;-53
2020/12/07 04:15:23;;;;;;;9.02;4.90;;;;;;;9.98;55.55;95168.59;5020233;28;20524;-56
2020/12/07 04:17:50;;;;;;;4.45;3.80;;;;;;;9.97;55.40;95156.47;5016991;28;20046;-55
2020/12/07 04:20:17;;;;;;;6.72;4.68;;;;;;;9.99;55.38;95148.31;4998658;28;20057;-54
2020/12/07 04:22:44;;;;;;;5.68;3.97;;;;;;;10.01;55.83;95138.31;5002625;28;20053;-56
2020/12/07 04:25:11;;;;;;;5.05;4.15;;;;;;;10.05;55.14;95159.63;5003061;28;20045;-55
2020/12/07 04:27:38;;;;;;;5.93;3.90;;;;;;;10.08;55.14;95162.50;5043269;28;20069;-54
2020/12/07 04:30:06;;;;;;;5.50;4.10;;;;;;;10.05;55.04;95152.50;5027433;28;20080;-60
2020/12/07 04:32:32;;;;;;;6.15;4.50;;;;;;;10.06;55.11;95156.72;5022300;28;20045;-54
2020/12/07 04:34:59;;;;;;;5.60;4.25;;;;;;;10.06;55.34;95167.25;5044440;28;20552;-57
2020/12/07 04:37:27;;;;;;;8.35;4.40;;;;;;;10.02;54.94;95137.25;5019677;28;20058;-54
2020/12/07 04:39:54;;;;;;;5.45;4.43;;;;;;;10.04;54.90;95153.56;5023170;28;20064;-53
2020/12/07 04:42:22;;;;;;;8.07;4.63;;;;;;;10.03;55.25;95167.00;5037888;28;20383;-53
2020/12/07 04:44:49;;;;;;;5.18;4.28;;;;;;;10.05;55.06;95175.44;5041702;28;20045;-55
2020/12/07 04:47:19;;;;;;;7.13;4.18;;;;;;;10.01;54.64;95148.84;5011032;28;20057;-53
2020/12/07 04:49:46;;;;;;;6.15;4.00;;;;;;;10.02;54.75;95128.53;5011915;28;20088;-54
2020/12/07 04:52:13;;;;;;;6.40;3.58;;;;;;;10.06;54.60;95138.28;5018571;28;20092;-53
2020/12/07 04:54:42;;;;;;;5.68;3.95;;;;;;;10.08;54.05;95149.34;5018300;28;20060;-54
2020/12/07 04:57:09;;;;;;;5.13;4.22;;;;;;;10.09;54.39;95150.91;5007443;28;20055;-54
2020/12/07 04:59:40;;;;;;;5.85;3.92;;;;;;;10.06;54.71;95140.91;5019070;28;20405;-54
2020/12/07 05:02:11;;;;;;;6.70;3.92;;;;;;;10.13;54.88;95148.50;5008762;28;20049;-53
2020/12/07 05:04:38;;;;;;;5.53;3.55;;;;;;;10.12;54.52;95147.75;5024311;28;20049;-55
2020/12/07 05:07:07;;;;;;;4.07;3.47;;;;;;;10.12;54.33;95147.75;5034546;28;20514;-55
2020/12/07 05:09:37;;;;;;;5.47;4.32;;;;;;;10.13;54.23;95145.88;5011101;28;20409;-54
2020/12/07 05:12:16;;;;;;;4.80;4.05;;;;;;;10.12;54.36;95139.84;5010944;28;20041;-53
2020/12/07 05:14:44;;;;;;;5.22;3.08;;;;;;;10.14;54.15;95165.91;5043691;28;20433;-52
2020/12/07 05:17:14;;;;;;;4.18;3.05;;;;;;;10.13;53.83;95136.16;5013624;28;20041;-56
2020/12/07 05:19:45;;;;;;;7.57;4.20;;;;;;;10.12;54.20;95163.56;5010356;28;20049;-53
2020/12/07 05:22:16;;;;;;;4.22;3.60;;;;;;;10.14;53.88;95143.00;5041919;28;20413;-54
2020/12/07 05:24:49;;;;;;;3.65;3.25;;;;;;;10.16;54.00;95164.56;5005219;28;20253;-55
2020/12/07 05:27:18;;;;;;;3.42;3.13;;;;;;;10.13;53.56;95145.88;5009719;28;20524;-54
2020/12/07 05:32:39;;;;;;;5.32;3.55;;;;;;;10.18;53.85;95134.53;4980252;28;20057;-53
2020/12/07 05:35:07;;;;;;;3.78;3.47;;;;;;;10.18;53.90;95158.25;5027042;28;20053;-54
2020/12/07 05:37:36;;;;;;;6.57;3.75;;;;;;;10.18;54.08;95158.25;5010114;28;20057;-54
2020/12/07 05:40:09;;;;;;;5.40;3.33;;;;;;;10.16;53.96;95151.38;5001203;28;20045;-54
2020/12/07 05:42:36;;;;;;;4.63;3.15;;;;;;;10.14;53.75;95152.72;5000191;28;20048;-54
2020/12/07 05:45:05;;;;;;;5.68;3.42;;;;;;;10.18;53.37;95140.59;5007768;28;20394;-54
2020/12/07 05:47:34;;;;;;;4.25;3.22;;;;;;;10.10;53.42;95141.16;5044782;28;20056;-54
2020/12/07 05:50:06;;;;;;;4.22;3.03;;;;;;;10.20;53.39;95153.50;5008431;28;20306;-55
2020/12/07 05:52:45;;;;;;;4.50;3.40;;;;;;;10.21;53.46;95152.44;5000856;28;20598;-54
2020/12/07 05:55:18;;;;;;;5.45;3.08;;;;;;;10.20;53.26;95141.13;5009304;28;20049;-55
2020/12/07 05:58:03;;;;;;;5.28;3.30;;;;;;;10.21;53.24;95142.69;5008486;28;20057;-55
2020/12/07 06:00:37;;;;;;;6.80;3.35;;;;;;;10.19;53.21;95160.63;5005635;28;20060;-55
2020/12/07 06:03:06;;;;;;;4.30;3.15;;;;;;;10.21;53.32;95155.06;5003222;28;20098;-55
2020/12/07 06:05:34;;;;;;;5.43;3.47;;;;;;;10.24;53.08;95152.66;5006800;28;20540;-55
2020/12/07 06:08:13;;;;;;;5.00;3.25;;;;;;;10.24;52.90;95160.56;5047508;28;20060;-55
2020/12/07 06:10:45;;;;;;;4.88;3.20;;;;;;;10.16;53.03;95140.84;5020720;28;20053;-54
2020/12/07 06:13:17;;;;;;;5.22;3.45;;;;;;;10.27;52.91;95177.72;5014393;28;20053;-54
2020/12/07 06:15:46;;;;;;;4.57;3.92;;;;;;;10.24;53.07;95180.88;4998320;28;20406;-54
2020/12/07 06:18:35;;;;;;;6.35;3.33;;;;;;;10.26;53.21;95174.28;5043587;28;20060;-56
2020/12/07 06:21:05;;;;;;;8.13;3.72;;;;;;;10.27;52.95;95169.81;5005316;28;20049;-54
2020/12/07 06:23:37;;;;;;;4.65;4.03;;;;;;;10.26;53.09;95199.88;5005620;28;20766;-55
2020/12/07 06:26:08;;;;;;;4.68;3.30;;;;;;;10.22;53.26;95196.19;5012379;28;20049;-55
2020/12/07 06:28:37;;;;;;;7.07;3.88;;;;;;;10.23;53.58;95174.03;5003505;28;20069;-53
2020/12/07 06:31:06;;;;;;;5.13;4.05;;;;;;;10.24;53.61;95192.22;5023511;28;20048;-55
2020/12/07 06:33:38;;;;;;;4.40;3.65;;;;;;;10.27;53.58;95188.25;5004772;28;20418;-54
2020/12/07 06:36:05;;;;;;;6.25;4.25;;;;;;;10.25;53.15;95174.56;5000363;28;20552;-57
2020/12/07 06:38:41;;;;;;;7.28;3.70;;;;;;;10.28;53.15;95203.00;4996493;28;20170;-54
2020/12/07 06:41:08;;;;;;;5.47;4.07;;;;;;;10.26;53.52;95200.63;5004846;28;20049;-59
2020/12/07 06:43:35;;;;;;;4.68;4.05;;;;;;;10.28;53.17;95200.34;5008130;28;20046;-55
2020/12/07 06:46:02;;;;;;;8.50;4.28;;;;;;;10.26;53.21;95198.00;5001514;28;20304;-55
2020/12/07 06:48:35;;;;;;;5.00;3.75;;;;;;;10.26;53.43;95198.00;5005586;28;20045;-55
2020/12/07 06:51:02;;;;;;;7.57;3.92;;;;;;;10.22;53.64;95222.53;5045995;28;20049;-56
2020/12/07 06:56:00;;;;;;;5.43;3.97;;;;;;;10.19;53.41;95202.78;5022006;28;20053;-54
2020/12/07 06:58:31;;;;;;;4.55;3.45;;;;;;;10.21;53.11;95220.97;5008580;28;20044;-55
2020/12/07 07:01:15;;;;;;;5.15;3.10;;;;;;;10.20;52.80;95211.47;5042483;28;20049;-53
2020/12/07 07:03:47;;;;;;;4.60;3.38;;;;;;;10.20;53.03;95227.28;5004260;28;20049;-56
2020/12/07 07:06:19;;;;;;;4.88;3.75;;;;;;;10.10;53.25;95214.94;5019205;28;20068;-54
2020/12/07 07:08:47;;;;;;;5.85;3.28;;;;;;;10.17;53.53;95228.63;5048949;28;20061;-56
2020/12/07 07:11:15;;;;;;;5.80;4.13;;;;;;;10.15;53.88;95217.56;5045195;28;20048;-57
2020/12/07 07:13:47;;;;;;;8.27;4.55;;;;;;;10.18;54.43;95250.50;5058645;28;20549;-54
2020/12/07 07:16:17;;;;;;;5.75;4.18;;;;;;;10.12;54.05;95234.72;5014016;28;20329;-54
2020/12/07 07:18:44;;;;;;;5.10;4.28;;;;;;;10.11;53.93;95248.94;5042056;28;20060;-55
2020/12/07 07:21:11;;;;;;;3.60;3.30;;;;;;;10.13;54.00;95246.81;5019298;28;20050;-55
2020/12/07 07:23:40;;;;;;;7.55;4.47;;;;;;;10.10;54.20;95236.81;5019703;28;20053;-55
2020/12/07 07:26:16;;;;;;;9.80;5.50;;;;;;;10.09;54.22;95251.06;5048561;28;20053;-54
2020/12/07 07:28:45;;;;;;;5.82;4.78;;;;;;;10.06;54.38;95245.53;5051023;28;20079;-55
2020/12/07 07:31:14;;;;;;;7.45;5.30;;;;;;;10.11;54.74;95254.22;5036654;28;20517;-55
2020/12/07 07:33:41;;;;;;;7.13;4.78;;;;;;;10.10;54.58;95250.00;5012411;28;20048;-55
2020/12/07 07:36:22;;;;;;;6.15;4.50;;;;;;;10.06;54.92;95256.84;5021810;28;20053;-55
2020/12/07 07:39:00;;;;;;;6.88;4.32;;;;;;;9.96;54.88;95235.81;5057887;28;20053;-54
2020/12/07 07:41:27;;;;;;;6.95;5.05;;;;;;;10.02;55.30;95249.75;5057768;28;20057;-55
2020/12/07 07:43:55;;;;;;;5.40;4.68;;;;;;;10.02;54.96;95253.19;5062455;28;20505;-55
2020/12/07 07:46:24;;;;;;;5.95;4.82;;;;;;;9.98;55.30;95250.28;5054408;28;20078;-55
2020/12/07 07:49:17;;;;;;;6.10;5.50;;;;;;;9.97;55.50;95253.19;5023707;28;20620;-55
2020/12/07 07:52:34;;;;;;;5.88;5.20;;;;;;;9.98;55.55;95255.56;5023280;28;20493;-54
2020/12/07 08:17:13;;;;;;;7.78;4.68;;;;;;;9.65;57.03;95267.50;5017798;28;20037;-54
2020/12/07 08:19:41;;;;;;;6.97;4.57;;;;;;;9.62;56.87;95268.78;5024052;28;20049;-55
2020/12/07 08:22:18;;;;;;;8.85;5.03;;;;;;;9.62;57.06;95278.53;5050895;28;20053;-54
2020/12/07 08:24:59;;;;;;;8.10;4.47;;;;;;;9.49;57.34;95258.78;5065947;28;20053;-54
2020/12/07 08:27:34;;;;;;;6.90;4.50;;;;;;;9.54;58.17;95271.97;5055169;28;20041;-54
2020/12/07 08:30:06;;;;;;;7.05;5.05;;;;;;;9.50;57.80;95273.53;5009195;28;20049;-54
2020/12/07 08:32:34;;;;;;;8.23;5.20;;;;;;;9.48;58.28;95278.28;5020193;28;20041;-54
2020/12/07 08:35:11;;;;;;;6.80;4.55;;;;;;;9.47;58.62;95288.03;5022616;28;20488;-54
2020/12/07 08:37:43;;;;;;;4.97;3.95;;;;;;;9.46;59.50;95280.41;5020900;28;20049;-55
2020/12/07 08:40:10;;;;;;;6.30;4.20;;;;;;;9.41;59.62;95278.56;5053753;28;20057;-54
2020/12/07 08:42:37;;;;;;;7.13;5.53;;;;;;;9.42;59.68;95284.59;5021098;28;20061;-54
2020/12/07 08:45:04;;;;;;;7.90;5.18;;;;;;;9.35;59.99;95277.75;5001661;28;20468;-55
2020/12/07 08:47:31;;;;;;;7.32;5.40;;;;;;;9.32;60.57;95280.13;5012903;28;20049;-54
2020/12/07 08:50:02;;;;;;;5.97;4.90;;;;;;;9.29;60.35;95280.66;5018445;28;20073;-55
2020/12/07 08:52:30;;;;;;;8.68;5.15;;;;;;;9.26;60.79;95289.09;5041887;28;20045;-54
2020/12/07 08:54:57;;;;;;;6.07;5.05;;;;;;;9.30;60.90;95284.84;5011557;28;20049;-55
2020/12/07 08:57:24;;;;;;;7.97;4.47;;;;;;;9.26;60.94;95291.72;5037135;28;20140;-55
2020/12/07 08:59:52;;;;;;;6.82;4.97;;;;;;;9.22;60.56;95288.81;5027182;28;20064;-54
2020/12/07 09:02:19;;;;;;;6.60;5.43;;;;;;;9.17;62.14;95292.22;5018207;28;20054;-54
2020/12/07 09:04:47;;;;;;;7.60;5.60;;;;;;;9.11;61.49;95285.38;5054258;28;20056;-54
2020/12/07 09:07:15;;;;;;;6.88;4.47;;;;;;;9.04;60.90;95277.75;5018908;28;20057;-54
2020/12/07 09:09:42;;;;;;;6.05;4.97;;;;;;;9.11;61.67;95300.38;5023277;28;20046;-54
2020/12/07 09:12:09;;;;;;;7.45;4.88;;;;;;;9.08;60.55;95293.78;5019632;28;20045;-55
2020/12/07 09:14:36;;;;;;;11.02;5.30;;;;;;;9.07;61.06;95284.31;5049212;28;20045;-55
2020/12/07 09:17:03;;;;;;;9.20;5.40;;;;;;;9.05;60.70;95289.03;5048648;28;20065;-54
2020/12/07 09:19:30;;;;;;;7.43;5.35;;;;;;;9.03;61.24;95289.31;5017429;28;20053;-56
2020/12/07 09:21:58;;;;;;;8.40;5.40;;;;;;;9.00;61.47;95296.94;5016857;28;20064;-57
2020/12/07 09:24:25;;;;;;;7.32;5.95;;;;;;;8.94;61.29;95285.63;5012464;28;20489;-56
2020/12/07 09:26:51;;;;;;;6.38;5.22;;;;;;;8.89;61.13;95285.59;5014994;28;20062;-55
2020/12/07 09:29:19;;;;;;;7.22;5.90;;;;;;;8.95;60.96;95296.91;5012491;28;20061;-55
2020/12/07 09:31:46;;;;;;;8.02;5.05;;;;;;;8.91;61.29;95294.81;5053229;28;20052;-54
2020/12/07 09:34:13;;;;;;;8.15;5.70;;;;;;;8.90;61.50;95287.97;5007238;28;20411;-57
2020/12/07 09:36:42;;;;;;;7.55;4.82;;;;;;;8.89;61.69;95291.66;5004195;28;20461;-55
2020/12/07 09:39:09;;;;;;;7.65;6.07;;;;;;;8.90;61.59;95297.69;5003665;28;20410;-55
2020/12/07 09:41:36;;;;;;;7.53;5.40;;;;;;;8.87;61.71;95283.22;5045568;28;20061;-54
2020/12/07 09:44:04;;;;;;;9.93;6.22;;;;;;;8.86;61.40;95283.50;5048100;28;20044;-55
2020/12/07 09:46:31;;;;;;;13.55;6.95;;;;;;;8.86;62.12;95284.28;5007844;28;20058;-54
2020/12/07 09:48:58;;;;;;;10.10;7.43;;;;;;;8.87;62.30;95291.13;5014127;28;20057;-54
2020/12/07 09:51:25;;;;;;;7.65;5.57;;;;;;;8.89;61.42;95282.97;5014383;28;20605;-54
2020/12/07 09:53:52;;;;;;;7.32;5.78;;;;;;;8.85;62.29;95282.69;5012357;28;20056;-54
2020/12/07 09:56:23;;;;;;;8.35;6.45;;;;;;;8.86;61.37;95273.75;5034466;28;20057;-55
2020/12/07 09:58:51;;;;;;;10.13;6.22;;;;;;;8.85;62.14;95282.69;5015783;28;20045;-53
2020/12/07 10:01:18;;;;;;;7.53;5.22;;;;;;;8.82;61.41;95285.84;5020535;28;20070;-54
2020/12/07 10:03:45;;;;;;;5.95;4.70;;;;;;;8.81;61.80;95281.63;4997720;28;20481;-53
2020/12/07 10:06:12;;;;;;;7.57;6.55;;;;;;;8.79;62.09;95288.22;5048031;28;20063;-55
2020/12/07 10:08:40;;;;;;;9.70;7.18;;;;;;;8.77;62.08;95288.47;5046080;28;20433;-54
2020/12/07 10:11:07;;;;;;;7.18;6.47;;;;;;;8.77;61.80;95284.00;5045509;28;20045;-56
2020/12/07 10:13:35;;;;;;;6.65;5.65;;;;;;;8.79;62.23;95290.84;5002966;28;20401;-55
2020/12/07 10:16:03;;;;;;;6.82;4.80;;;;;;;8.82;61.92;95292.97;5030602;28;20076;-54
2020/12/07 10:18:30;;;;;;;7.20;5.65;;;;;;;8.79;62.41;95291.66;5005877;28;20052;-55
2020/12/07 10:20:57;;;;;;;6.50;5.13;;;;;;;8.83;62.64;95299.78;5045732;28;20053;-55
2020/12/07 10:23:24;;;;;;;6.18;5.28;;;;;;;8.84;62.73;95298.75;5047698;28;20077;-55
2020/12/07 10:25:52;;;;;;;5.90;4.32;;;;;;;8.83;63.00;95297.94;5023082;28;20064;-55
2020/12/07 10:28:27;;;;;;;8.32;5.47;;;;;;;8.84;63.76;95299.53;5000263;28;20054;-54
2020/12/07 10:30:54;;;;;;;6.35;5.28;;;;;;;8.69;63.96;95292.41;5045277;28;20072;-55
2020/12/07 10:33:22;;;;;;;7.32;5.68;;;;;;;8.77;64.23;95301.63;5013131;28;20049;-55
2020/12/07 10:35:50;;;;;;;6.15;5.28;;;;;;;8.77;64.45;95309.50;5017800;28;20068;-55
2020/12/07 10:38:17;;;;;;;6.68;5.93;;;;;;;8.70;63.87;95303.69;5013752;28;20057;-55
2020/12/07 10:40:44;;;;;;;7.60;5.40;;;;;;;8.62;63.84;95307.59;5045815;28;20053;-54
2020/12/07 10:43:12;;;;;;;8.23;5.70;;;;;;;8.60;64.33;95302.63;5047559;28;20049;-55
2020/12/07 10:45:39;;;;;;;5.93;5.00;;;;;;;8.55;64.88;95305.25;5053368;28;20053;-55
2020/12/07 10:48:06;;;;;;;6.60;4.25;;;;;;;8.49;65.06;95308.13;5024165;28;20045;-54
2020/12/07 10:50:34;;;;;;;8.57;5.35;;;;;;;8.43;65.79;95312.53;5006665;28;20052;-53
2020/12/07 10:53:01;;;;;;;7.35;4.93;;;;;;;8.27;66.71;95309.00;5045016;28;20050;-54
2020/12/07 10:55:28;;;;;;;4.32;3.80;;;;;;;8.21;65.92;95312.69;5014626;28;20049;-53
2020/12/07 10:57:55;;;;;;;6.20;4.55;;;;;;;8.10;65.55;95304.75;5020555;28;20045;-55
2020/12/07 11:00:22;;;;;;;7.25;5.32;;;;;;;8.10;66.61;95314.44;5007129;28;20060;-54
2020/12/07 11:02:49;;;;;;;7.68;4.47;;;;;;;8.12;66.36;95313.13;5030803;28;20080;-54
2020/12/07 11:05:17;;;;;;;6.28;4.05;;;;;;;8.22;66.30;95307.16;5040042;28;20049;-54
2020/12/07 11:07:46;;;;;;;5.80;4.57;;;;;;;8.29;67.15;95312.19;5021298;28;20064;-54
2020/12/07 11:10:13;;;;;;;6.03;5.15;;;;;;;8.27;65.80;95301.13;5018090;28;20056;-54
2020/12/07 11:12:43;;;;;;;6.03;5.13;;;;;;;8.23;66.30;95302.72;5057315;28;20068;-55
2020/12/07 11:15:11;;;;;;;5.60;4.15;;;;;;;8.27;66.53;95301.94;5018388;28;20080;-55
2020/12/07 11:17:38;;;;;;;4.20;3.80;;;;;;;8.30;65.30;95298.81;5019279;28;20058;-55
2020/12/07 11:20:05;;;;;;;3.97;2.88;;;;;;;8.23;64.43;95298.22;5042421;28;20064;-55
2020/12/07 11:22:32;;;;;;;6.10;3.45;;;;;;;8.25;64.80;95300.59;5006462;28;20412;-55
2020/12/07 11:25:00;;;;;;;3.47;2.55;;;;;;;8.32;64.02;95298.53;5024893;28;20049;-55
2020/12/07 11:27:36;;;;;;;3.55;3.25;;;;;;;8.36;64.31;95302.25;5058750;28;20382;-55
2020/12/07 11:30:04;;;;;;;5.95;3.33;;;;;;;8.41;64.61;95314.63;5047830;28;20049;-55
2020/12/07 11:32:33;;;;;;;3.97;3.00;;;;;;;8.40;64.65;95313.03;5052821;28;20045;-54
2020/12/07 11:35:01;;;;;;;3.53;3.15;;;;;;;8.42;64.81;95319.59;5053077;28;20045;-53
2020/12/07 11:37:28;;;;;;;4.43;3.30;;;;;;;8.42;64.73;95321.47;5039903;28;20049;-54
2020/12/07 11:40:14;;;;;;;3.90;3.47;;;;;;;8.34;65.07;95314.84;5045935;28;20061;-54
2020/12/07 11:45:41;;;;;;;5.05;3.17;;;;;;;8.37;65.32;95314.31;4981246;28;20080;-56
2020/12/07 11:48:09;;;;;;;4.55;3.33;;;;;;;8.38;65.49;95315.13;5009607;28;20053;-53
2020/12/07 11:50:37;;;;;;;3.50;2.75;;;;;;;8.39;65.41;95320.09;5050861;28;20049;-54
2020/12/07 11:53:04;;;;;;;4.15;3.15;;;;;;;8.40;65.36;95323.53;5020946;28;20041;-53
2020/12/07 11:55:31;;;;;;;4.00;2.90;;;;;;;8.39;65.21;95330.63;5011772;28;20271;-54
2020/12/07 11:57:58;;;;;;;2.80;2.15;;;;;;;8.34;64.90;95319.28;5017791;28;20053;-54
2020/12/07 12:00:25;;;;;;;2.72;2.30;;;;;;;8.29;64.99;95314.81;5011548;28;20053;-54
2020/12/07 12:02:52;;;;;;;2.15;1.95;;;;;;;8.21;64.88;95317.94;5010251;28;21419;-53
2020/12/07 12:05:19;;;;;;;4.25;2.72;;;;;;;8.15;65.12;95315.25;5018999;28;20056;-54
2020/12/07 12:07:46;;;;;;;4.65;2.47;;;;;;;8.06;65.52;95318.66;5040130;28;20057;-54
2020/12/07 12:10:13;;;;;;;4.35;3.15;;;;;;;8.04;67.13;95315.47;5051717;28;20136;-54
2020/12/07 12:12:40;;;;;;;3.20;2.60;;;;;;;8.00;66.68;95310.72;5000149;28;20141;-54
2020/12/07 12:15:09;;;;;;;4.72;4.15;;;;;;;8.00;67.24;95297.59;5017500;28;20627;-54
2020/12/07 12:17:37;;;;;;;3.92;3.25;;;;;;;8.03;68.18;95300.75;5055178;28;20423;-55
2020/12/07 12:20:05;;;;;;;4.93;3.28;;;;;;;8.07;67.85;95301.81;5022910;28;20053;-54